Time;durP1;ratioP1;P1;durP2;ratioP2;P2;SDS_P1;SDS_P2;PMS_P1;PMS_P2;Temp;Humidity;BMP_temperature;BMP_pressure;BME280_temperature;BME280_humidity;BME280_pressure;Samples;Min_cycle;Max_cycle;Signal;HPM_P1;HPM_P2
2023/02/23 00:01:26;;;;;;;9.90;3.40;;;;;;;-2.45;47.61;101102.20;105039;1267;73988;-54
2023/02/23 00:03:56;;;;;;;8.80;3.50;;;;;;;-2.49;47.25;101101.57;105015;1266;61120;-53
2023/02/23 00:06:28;;;;;;;6.10;2.80;;;;;;;-2.56;46.74;101104.24;105019;1266;59989;-54
2023/02/23 00:09:00;;;;;;;6.90;2.90;;;;;;;-2.64;45.64;101106.25;104710;1266;73965;-55
2023/02/23 00:11:28;;;;;;;8.30;2.70;;;;;;;-2.70;45.95;101109.08;105065;1267;71162;-56
2023/02/23 00:13:57;;;;;;;8.40;2.90;;;;;;;-2.75;45.50;101111.03;104799;1268;73608;-55
2023/02/23 00:16:25;;;;;;;5.70;2.40;;;;;;;-2.85;45.01;101116.14;104883;1263;61486;-56
2023/02/23 00:18:55;;;;;;;6.30;2.30;;;;;;;-2.91;45.47;101116.39;104883;1264;61287;-56
2023/02/23 00:21:28;;;;;;;8.70;2.30;;;;;;;-2.88;45.47;101122.02;105003;1269;73113;-56
2023/02/23 00:23:58;;;;;;;9.80;2.30;;;;;;;-2.91;45.72;101123.94;104902;1266;70969;-57
2023/02/23 00:26:33;;;;;;;9.30;4.00;;;;;;;-2.94;45.90;101125.19;104608;1266;74113;-55
2023/02/23 00:29:07;;;;;;;11.10;3.00;;;;;;;-2.96;46.11;101124.69;104715;1267;61147;-56
2023/02/23 00:31:37;;;;;;;8.40;3.10;;;;;;;-2.97;46.21;101126.60;104884;1263;60354;-55
2023/02/23 00:34:06;;;;;;;9.20;2.80;;;;;;;-2.98;46.34;101124.55;104739;1268;74012;-59
2023/02/23 00:36:34;;;;;;;8.00;2.70;;;;;;;-3.01;46.67;101125.45;105017;1266;69967;-55
2023/02/23 00:39:16;;;;;;;7.80;2.80;;;;;;;-3.02;46.91;101125.79;104795;1267;74063;-56
2023/02/23 00:41:45;;;;;;;9.20;3.30;;;;;;;-3.03;47.12;101127.52;104969;1268;61307;-55
2023/02/23 00:44:14;;;;;;;8.40;3.10;;;;;;;-3.04;47.47;101131.83;105252;1266;61349;-56
2023/02/23 00:46:43;;;;;;;7.40;2.40;;;;;;;-3.07;47.81;101132.54;104892;1269;74198;-56
2023/02/23 00:49:12;;;;;;;8.90;3.30;;;;;;;-3.09;47.92;101130.67;104894;1267;70063;-55
2023/02/23 00:51:41;;;;;;;9.40;3.50;;;;;;;-3.12;48.04;101133.12;104881;1263;73583;-55
2023/02/23 00:54:15;;;;;;;10.20;4.00;;;;;;;-3.15;48.11;101130.41;104831;1269;61306;-56
2023/02/23 00:56:45;;;;;;;8.70;3.90;;;;;;;-3.22;48.28;101136.66;105022;1267;60990;-56
2023/02/23 00:59:13;;;;;;;10.10;3.70;;;;;;;-3.26;48.62;101143.41;105078;1266;72734;-56
2023/02/23 01:01:42;;;;;;;8.40;3.80;;;;;;;-3.30;48.89;101146.18;104994;1266;71134;-56
2023/02/23 01:04:11;;;;;;;8.70;3.40;;;;;;;-3.32;48.97;101148.44;106363;1266;73948;-56
2023/02/23 01:06:40;;;;;;;11.10;3.80;;;;;;;-3.35;49.30;101149.16;104649;1269;60310;-56
2023/02/23 01:09:12;;;;;;;9.30;4.90;;;;;;;-3.38;49.47;101151.41;105191;1257;61099;-55
2023/02/23 01:11:46;;;;;;;11.00;3.40;;;;;;;-3.41;49.83;101155.55;105289;1257;74065;-55
2023/02/23 01:14:15;;;;;;;11.40;4.20;;;;;;;-3.42;50.17;101156.27;105276;1266;70765;-55
2023/02/23 01:16:43;;;;;;;9.10;4.00;;;;;;;-3.44;50.18;101160.74;105362;1259;73687;-55
2023/02/23 01:19:12;;;;;;;12.10;5.00;;;;;;;-3.48;50.48;101162.15;105295;1260;61366;-54
2023/02/23 01:21:41;;;;;;;10.80;5.10;;;;;;;-3.51;50.53;101168.01;105444;1260;59750;-54
2023/02/23 01:24:10;;;;;;;8.70;3.60;;;;;;;-3.56;50.64;101170.11;105304;1255;72837;-55
2023/02/23 01:26:41;;;;;;;7.60;3.70;;;;;;;-3.59;50.64;101169.80;105482;1260;70362;-56
2023/02/23 01:29:15;;;;;;;14.30;4.80;;;;;;;-3.63;50.76;101174.13;105371;1254;72743;-54
2023/02/23 01:31:45;;;;;;;9.90;4.20;;;;;;;-3.66;50.61;101176.21;105331;1259;60179;-54
2023/02/23 01:34:21;;;;;;;11.20;4.30;;;;;;;-3.70;50.80;101180.02;105195;1258;59584;-54
2023/02/23 01:36:51;;;;;;;11.50;3.80;;;;;;;-3.75;51.05;101180.39;105461;1256;73946;-56
2023/02/23 01:39:19;;;;;;;12.00;3.80;;;;;;;-3.77;51.20;101190.02;105293;1260;71207;-55
2023/02/23 01:42:13;;;;;;;13.20;4.70;;;;;;;-3.81;51.28;101191.75;105299;1260;73937;-55
2023/02/23 01:44:41;;;;;;;11.90;4.70;;;;;;;-3.85;51.45;101187.84;105270;1254;61440;-55
2023/02/23 01:47:19;;;;;;;9.90;4.90;;;;;;;-3.88;51.53;101191.13;105180;1260;61074;-55
2023/02/23 01:49:49;;;;;;;10.10;4.40;;;;;;;-3.91;51.66;101195.77;105216;1262;73647;-55
2023/02/23 01:52:18;;;;;;;11.40;4.60;;;;;;;-3.95;51.79;101198.02;105297;1263;70248;-55
2023/02/23 01:54:50;;;;;;;8.20;4.30;;;;;;;-3.96;52.00;101196.50;105226;1263;73745;-58
2023/02/23 01:57:23;;;;;;;13.90;6.30;;;;;;;-3.99;52.07;101201.48;105290;1258;61237;-55
2023/02/23 01:59:55;;;;;;;8.60;4.10;;;;;;;-4.02;52.27;101208.36;105362;1259;60361;-55
2023/02/23 02:02:31;;;;;;;13.20;5.00;;;;;;;-4.09;52.50;101207.55;105707;1260;73813;-55
2023/02/23 02:05:01;;;;;;;10.10;4.30;;;;;;;-4.12;52.79;101206.36;105238;1260;70922;-55
2023/02/23 02:07:33;;;;;;;10.60;3.60;;;;;;;-4.15;53.01;101204.50;105232;1267;73071;-55
2023/02/23 02:12:45;;;;;;;10.50;4.30;;;;;;;-4.28;53.61;101212.80;105365;1260;60521;-56
2023/02/23 02:15:16;;;;;;;14.10;5.00;;;;;;;-4.26;53.68;101216.39;105869;1258;73623;-54
2023/02/23 02:18:08;;;;;;;11.30;4.20;;;;;;;-4.26;53.78;101219.11;105696;1259;71038;-55
2023/02/23 02:21:03;;;;;;;10.50;4.50;;;;;;;-4.27;53.84;101226.50;105279;1258;73412;-55
2023/02/23 02:23:44;;;;;;;8.50;3.00;;;;;;;-4.29;53.87;101228.23;105352;1260;61646;-55
2023/02/23 02:26:28;;;;;;;11.40;4.80;;;;;;;-4.33;53.88;101230.81;105376;1259;61574;-54
2023/02/23 02:29:21;;;;;;;12.70;5.10;;;;;;;-4.36;54.17;101231.86;105358;1261;72805;-55
2023/02/23 02:32:17;;;;;;;15.50;5.30;;;;;;;-4.39;53.98;101231.18;105575;1259;71296;-55
2023/02/23 02:35:10;;;;;;;15.40;5.10;;;;;;;-4.42;54.24;101239.77;105409;1260;73354;-54
2023/02/23 02:37:55;;;;;;;11.00;3.60;;;;;;;-4.49;54.44;101240.65;105409;1267;60371;-54
2023/02/23 02:40:29;;;;;;;14.00;4.30;;;;;;;-4.47;54.64;101242.54;105309;1257;61046;-55
2023/02/23 02:43:11;;;;;;;8.20;3.80;;;;;;;-4.47;54.84;101243.05;105416;1257;73105;-53
2023/02/23 02:46:13;;;;;;;9.90;4.10;;;;;;;-4.47;54.87;101246.46;105160;1260;71258;-54
2023/02/23 02:48:56;;;;;;;12.40;5.80;;;;;;;-4.47;55.09;101242.17;105014;1263;73698;-55
2023/02/23 02:51:38;;;;;;;15.90;4.20;;;;;;;-4.48;54.97;101243.56;105346;1257;59673;-54
2023/02/23 02:54:37;;;;;;;10.90;5.40;;;;;;;-4.51;55.05;101244.93;105254;1258;61019;-55
2023/02/23 02:57:06;;;;;;;12.30;4.40;;;;;;;-4.55;55.12;101252.66;105203;1257;74116;-53
2023/02/23 04:19:13;;;;;;;17.10;5.80;;;;;;;-4.74;56.01;101319.83;105396;1259;61173;-53
2023/02/23 04:21:44;;;;;;;13.50;5.50;;;;;;;-4.76;56.02;101322.05;105330;1260;61261;-54
2023/02/23 04:24:13;;;;;;;12.10;6.50;;;;;;;-4.80;55.83;101317.45;105293;1261;74617;-53
2023/02/23 04:26:41;;;;;;;11.90;4.10;;;;;;;-4.87;55.94;101317.11;105260;1254;71636;-54
2023/02/23 04:29:11;;;;;;;9.50;4.40;;;;;;;-4.93;56.11;101322.94;105377;1258;72645;-53
2023/02/23 04:31:40;;;;;;;13.20;4.70;;;;;;;-4.98;56.35;101325.17;105346;1257;61931;-54
2023/02/23 04:34:09;;;;;;;16.90;4.40;;;;;;;-5.02;56.43;101330.98;105487;1260;60387;-54
2023/02/23 04:36:37;;;;;;;12.80;4.80;;;;;;;-5.07;56.64;101331.85;105320;1258;75239;-52
2023/02/23 04:39:06;;;;;;;13.30;5.00;;;;;;;-5.11;56.76;101334.41;105222;1259;69978;-53
2023/02/23 04:41:35;;;;;;;12.40;3.50;;;;;;;-5.15;56.82;101338.19;105221;1255;73715;-52
2023/02/23 04:44:05;;;;;;;10.10;3.50;;;;;;;-5.17;56.91;101340.23;105274;1254;62981;-53
2023/02/23 04:46:34;;;;;;;13.20;5.10;;;;;;;-5.10;56.96;101345.20;105225;1258;60530;-52
2023/02/23 04:49:03;;;;;;;12.70;4.40;;;;;;;-5.01;56.90;101344.85;105332;1259;75166;-52
2023/02/23 04:51:32;;;;;;;10.20;3.90;;;;;;;-4.91;56.76;101350.66;105362;1257;71315;-51
2023/02/23 04:54:02;;;;;;;9.80;3.60;;;;;;;-4.82;56.67;101352.02;105502;1261;73615;-52
2023/02/23 04:56:31;;;;;;;12.30;5.50;;;;;;;-4.75;56.37;101350.65;105182;1260;61338;-53
2023/02/23 04:59:00;;;;;;;11.20;3.50;;;;;;;-4.66;56.29;101354.22;106473;1257;61500;-51
2023/02/23 05:01:31;;;;;;;7.20;2.90;;;;;;;-4.55;56.18;101357.97;105542;1259;74730;-51
2023/02/23 05:03:59;;;;;;;15.30;4.00;;;;;;;-4.47;55.97;101359.50;105561;1260;70924;-52
2023/02/23 05:06:29;;;;;;;11.50;4.30;;;;;;;-4.38;55.87;101361.02;105577;1257;73637;-52
2023/02/23 05:08:57;;;;;;;12.10;3.90;;;;;;;-4.28;55.77;101362.52;105442;1257;60564;-52
2023/02/23 05:11:28;;;;;;;10.40;3.90;;;;;;;-4.22;55.68;101365.94;105438;1263;61100;-51
2023/02/23 05:13:57;;;;;;;12.80;4.90;;;;;;;-4.26;55.39;101364.93;105405;1260;74815;-52
2023/02/23 05:16:26;;;;;;;8.90;4.40;;;;;;;-4.33;55.49;101369.73;105677;1257;71039;-53
2023/02/23 05:18:55;;;;;;;11.40;3.30;;;;;;;-4.39;55.62;101376.60;105460;1260;73726;-51
2023/02/23 05:21:24;;;;;;;14.60;4.70;;;;;;;-4.46;55.44;101377.30;105326;1257;61387;-52
2023/02/23 05:23:53;;;;;;;10.40;4.20;;;;;;;-4.54;55.46;101385.20;105432;1255;60470;-52
2023/02/23 05:26:21;;;;;;;11.40;4.10;;;;;;;-4.64;55.33;101385.73;105032;1260;74718;-52
2023/02/23 05:28:50;;;;;;;10.60;4.30;;;;;;;-4.75;55.48;101391.05;105388;1257;71487;-55
2023/02/23 05:31:19;;;;;;;10.80;4.90;;;;;;;-4.85;55.59;101393.27;105360;1258;73645;-51
2023/02/23 05:33:49;;;;;;;15.40;5.80;;;;;;;-4.94;55.82;101399.61;106066;1254;60524;-53
2023/02/23 05:36:19;;;;;;;14.10;5.80;;;;;;;-5.00;56.03;101405.42;105395;1257;63311;-53
2023/02/23 05:38:50;;;;;;;12.60;5.30;;;;;;;-5.05;56.29;101412.09;105241;1257;74541;-53
2023/02/23 05:41:38;;;;;;;12.90;5.70;;;;;;;-5.06;56.51;101417.23;105308;1255;71452;-53
2023/02/23 05:44:06;;;;;;;8.10;3.20;;;;;;;-5.05;56.65;101420.13;105273;1259;74225;-51
2023/02/23 05:46:36;;;;;;;16.40;4.80;;;;;;;-5.03;56.55;101422.88;105308;1254;61363;-53
2023/02/23 05:49:09;;;;;;;11.10;3.60;;;;;;;-5.02;56.42;101429.39;105331;1257;61018;-53
2023/02/23 05:51:39;;;;;;;14.40;4.50;;;;;;;-5.02;56.59;101434.52;105388;1258;74480;-53
2023/02/23 05:54:09;;;;;;;9.70;4.60;;;;;;;-4.96;56.48;101437.60;105379;1257;71135;-50
2023/02/23 05:56:40;;;;;;;12.20;5.30;;;;;;;-4.85;56.41;101444.11;105178;1259;72658;-52
2023/02/23 05:59:08;;;;;;;11.30;4.50;;;;;;;-4.74;56.02;101446.33;105314;1259;62036;-51
2023/02/23 06:01:38;;;;;;;8.70;3.70;;;;;;;-4.63;55.50;101446.68;105320;1258;61536;-52
2023/02/23 06:04:07;;;;;;;7.00;2.40;;;;;;;-4.54;55.46;101448.73;105513;1260;74824;-52
2023/02/23 06:06:36;;;;;;;7.10;3.60;;;;;;;-4.46;55.11;101455.23;105431;1259;70365;-51
2023/02/23 06:09:09;;;;;;;10.20;3.70;;;;;;;-4.35;54.91;101455.39;105429;1256;73871;-52
2023/02/23 06:11:39;;;;;;;10.30;2.90;;;;;;;-4.25;54.64;101456.58;105440;1256;61774;-51
2023/02/23 06:14:07;;;;;;;7.50;2.70;;;;;;;-4.13;54.16;101457.59;105387;1259;61340;-53
2023/02/23 06:16:36;;;;;;;9.10;3.20;;;;;;;-4.02;53.96;101455.68;105722;1259;74930;-51
2023/02/23 06:19:06;;;;;;;10.90;4.50;;;;;;;-3.91;53.64;101460.61;105464;1257;70929;-53
2023/02/23 06:21:34;;;;;;;9.80;3.40;;;;;;;-3.82;53.44;101464.70;105419;1256;73734;-52
2023/02/23 06:24:04;;;;;;;8.40;2.20;;;;;;;-3.79;53.02;101463.33;105395;1256;60499;-53
2023/02/23 06:26:34;;;;;;;10.60;4.30;;;;;;;-3.82;52.72;101468.48;105463;1256;60441;-52
2023/02/23 06:29:02;;;;;;;11.70;5.50;;;;;;;-3.88;52.74;101471.41;105534;1257;73834;-51
2023/02/23 06:31:31;;;;;;;13.90;4.80;;;;;;;-3.89;52.66;101472.95;105449;1260;71262;-52
2023/02/23 06:34:02;;;;;;;10.70;4.90;;;;;;;-3.92;52.74;101471.60;105459;1257;73661;-51
2023/02/23 06:36:31;;;;;;;8.20;3.30;;;;;;;-3.95;52.56;101472.80;105020;1256;61377;-54
2023/02/23 06:39:03;;;;;;;12.40;5.30;;;;;;;-4.02;52.27;101476.59;105460;1258;60476;-55
2023/02/23 06:53:54;;;;;;;11.20;5.90;;;;;;;-3.93;51.79;101478.61;103142;1283;604983;-58
2023/02/23 07:08:09;;;;;;;10.80;5.10;;;;;;;-3.43;51.45;101483.93;102911;1295;612758;-58
2023/02/23 07:10:37;;;;;;;17.60;5.70;;;;;;;-3.27;51.40;101490.20;106026;1272;102345;-57
2023/02/23 07:13:07;;;;;;;13.40;5.80;;;;;;;-3.27;50.84;101490.39;104467;1267;61324;-56
2023/02/23 07:15:37;;;;;;;14.70;7.10;;;;;;;-3.30;50.18;101495.89;104656;1269;73454;-56
2023/02/23 07:18:06;;;;;;;11.80;4.80;;;;;;;-3.38;49.75;101494.73;104731;1267;71288;-56
2023/02/23 07:20:34;;;;;;;15.80;5.90;;;;;;;-3.45;49.18;101496.30;104888;1267;72741;-56
2023/02/23 07:23:03;;;;;;;13.20;6.20;;;;;;;-3.52;49.72;101495.98;104553;1267;60370;-55
2023/02/23 07:25:34;;;;;;;16.30;5.90;;;;;;;-3.61;48.99;101497.90;104422;1270;61204;-56
2023/02/23 07:28:02;;;;;;;10.40;4.20;;;;;;;-3.70;48.85;101497.41;104745;1266;72863;-55
2023/02/23 07:30:30;;;;;;;12.50;5.30;;;;;;;-3.74;49.34;101497.78;104669;1267;71328;-55
2023/02/23 07:33:00;;;;;;;14.60;5.20;;;;;;;-3.76;48.87;101500.00;104662;1271;72678;-55
2023/02/23 07:35:29;;;;;;;17.10;6.20;;;;;;;-3.80;48.35;101502.92;104840;1261;61796;-54
2023/02/23 07:37:57;;;;;;;11.60;5.60;;;;;;;-3.84;48.49;101506.20;104575;1264;61325;-55
2023/02/23 07:40:26;;;;;;;12.30;4.80;;;;;;;-3.85;48.61;101504.15;104815;1266;73996;-55
2023/02/23 07:42:54;;;;;;;10.50;5.40;;;;;;;-3.83;48.52;101505.16;104828;1264;71105;-54
2023/02/23 07:45:23;;;;;;;10.70;5.70;;;;;;;-3.80;48.98;101506.37;104954;1267;73383;-57
2023/02/23 07:47:52;;;;;;;14.40;5.80;;;;;;;-3.76;48.94;101508.75;104970;1266;60194;-54
2023/02/23 07:50:20;;;;;;;17.40;5.90;;;;;;;-3.70;48.80;101508.22;104843;1266;61144;-54
2023/02/23 07:52:49;;;;;;;9.30;3.40;;;;;;;-3.66;48.76;101507.35;104757;1267;72924;-58
2023/02/23 07:55:17;;;;;;;9.90;4.50;;;;;;;-3.62;48.76;101508.89;105040;1264;71220;-59
2023/02/23 07:57:55;;;;;;;10.70;4.70;;;;;;;-3.56;48.17;101510.92;105180;1266;73630;-58
2023/02/23 08:00:23;;;;;;;11.30;4.20;;;;;;;-3.50;47.64;101504.90;104894;1264;60279;-59
2023/02/23 08:02:52;;;;;;;8.70;4.40;;;;;;;-3.44;47.44;101512.60;104566;1266;61243;-58
2023/02/23 08:05:21;;;;;;;12.40;4.40;;;;;;;-3.39;46.88;101513.08;104979;1257;72886;-59
2023/02/23 08:07:51;;;;;;;12.50;4.20;;;;;;;-3.32;46.52;101513.23;105165;1257;71690;-57
2023/02/23 08:10:19;;;;;;;12.70;4.30;;;;;;;-3.25;46.00;101509.94;105076;1261;73626;-57
2023/02/23 08:12:47;;;;;;;9.70;4.10;;;;;;;-3.19;45.46;101511.79;105343;1263;61377;-57
2023/02/23 08:15:16;;;;;;;12.10;4.00;;;;;;;-3.13;45.58;101509.02;105031;1260;61058;-58
2023/02/23 08:17:47;;;;;;;8.70;3.20;;;;;;;-3.08;44.71;101505.21;105139;1258;72968;-57
2023/02/23 08:20:15;;;;;;;12.30;4.70;;;;;;;-3.04;44.59;101505.54;105287;1262;71307;-57
2023/02/23 08:22:44;;;;;;;12.50;5.00;;;;;;;-3.01;44.92;101505.68;105109;1263;73485;-57
2023/02/23 08:25:17;;;;;;;10.10;3.90;;;;;;;-2.98;44.26;101503.27;105198;1263;60198;-57
2023/02/23 08:27:50;;;;;;;8.30;3.30;;;;;;;-2.96;44.24;101502.05;105040;1263;60428;-57
2023/02/23 08:30:20;;;;;;;12.40;4.10;;;;;;;-2.91;44.00;101506.14;105220;1262;74009;-57
2023/02/23 08:32:49;;;;;;;10.00;3.50;;;;;;;-2.88;42.66;101504.59;105197;1262;71252;-57
2023/02/23 08:35:19;;;;;;;10.70;4.70;;;;;;;-2.90;41.05;101504.25;105096;1257;73527;-57
2023/02/23 08:37:47;;;;;;;10.10;5.10;;;;;;;-2.92;41.28;101508.73;105207;1260;61725;-57
2023/02/23 08:40:19;;;;;;;8.20;2.90;;;;;;;-2.91;41.67;101508.38;105073;1257;61609;-57
2023/02/23 08:42:51;;;;;;;10.80;4.00;;;;;;;-2.91;41.86;101508.71;105194;1258;74107;-56
2023/02/23 08:45:19;;;;;;;9.50;3.90;;;;;;;-2.88;42.07;101510.08;105203;1257;70972;-57
2023/02/23 08:47:48;;;;;;;10.00;3.00;;;;;;;-2.82;42.05;101506.26;105452;1263;73655;-57
2023/02/23 08:50:16;;;;;;;10.70;3.90;;;;;;;-2.77;42.34;101509.15;105089;1261;60936;-58
2023/02/23 08:52:46;;;;;;;8.10;3.10;;;;;;;-2.72;42.55;101511.00;105238;1263;61260;-57
2023/02/23 08:55:20;;;;;;;10.10;4.10;;;;;;;-2.68;42.47;101510.98;105233;1257;74035;-56
2023/02/23 08:57:48;;;;;;;9.50;3.70;;;;;;;-2.65;42.25;101510.79;105411;1258;71160;-56
2023/02/23 09:00:17;;;;;;;12.30;4.40;;;;;;;-2.62;42.59;101505.27;105208;1257;73734;-55
2023/02/23 09:02:47;;;;;;;10.40;3.80;;;;;;;-2.55;42.80;101506.26;108888;1257;61367;-58
2023/02/23 09:05:15;;;;;;;12.10;5.00;;;;;;;-2.45;42.55;101506.52;106076;1260;61150;-57
2023/02/23 09:07:44;;;;;;;11.40;4.40;;;;;;;-2.34;42.25;101508.48;105519;1262;72765;-57
2023/02/23 09:10:14;;;;;;;10.30;4.50;;;;;;;-2.23;42.21;101513.53;106572;1257;70517;-57
2023/02/23 09:12:46;;;;;;;9.00;3.50;;;;;;;-2.13;41.84;101515.17;104986;1260;73673;-56
2023/02/23 09:15:14;;;;;;;10.40;3.60;;;;;;;-2.05;41.93;101514.92;104760;1264;60068;-57
2023/02/23 09:17:43;;;;;;;15.00;4.80;;;;;;;-1.95;41.62;101519.48;105097;1258;61758;-56
2023/02/23 09:20:14;;;;;;;13.40;5.40;;;;;;;-1.88;41.45;101521.29;105236;1257;74338;-55
2023/02/23 09:22:48;;;;;;;11.60;4.40;;;;;;;-1.83;41.36;101522.10;105160;1260;70974;-55
2023/02/23 09:25:18;;;;;;;12.70;4.70;;;;;;;-1.77;40.73;101522.90;105118;1257;74085;-57
2023/02/23 09:27:47;;;;;;;9.90;3.90;;;;;;;-1.75;40.09;101525.80;105246;1259;60666;-55
2023/02/23 09:30:16;;;;;;;11.90;5.70;;;;;;;-1.73;39.98;101524.05;105984;1262;61820;-56
2023/02/23 09:32:49;;;;;;;10.70;4.00;;;;;;;-1.72;39.94;101520.95;105073;1260;73077;-58
2023/02/23 09:35:18;;;;;;;8.30;4.20;;;;;;;-1.69;39.72;101520.58;105131;1260;71336;-56
2023/02/23 09:37:47;;;;;;;10.50;3.90;;;;;;;-1.65;39.64;101524.31;105059;1263;73562;-55
2023/02/23 09:40:18;;;;;;;13.40;4.70;;;;;;;-1.61;39.48;101520.48;105058;1257;60286;-54
2023/02/23 09:42:57;;;;;;;10.00;4.10;;;;;;;-1.57;39.17;101519.06;105142;1257;59967;-58
2023/02/23 09:45:56;;;;;;;8.80;3.30;;;;;;;-1.57;38.85;101522.68;105361;1262;74824;-56
2023/02/23 09:48:25;;;;;;;11.20;4.70;;;;;;;-1.56;39.04;101520.77;105085;1258;71356;-58
2023/02/23 09:50:55;;;;;;;9.30;4.30;;;;;;;-1.50;39.09;101522.77;105095;1257;73747;-57
2023/02/23 09:53:43;;;;;;;12.70;5.00;;;;;;;-1.46;38.71;101523.06;105107;1257;61388;-56
2023/02/23 09:56:36;;;;;;;12.00;3.90;;;;;;;-1.45;38.19;101522.20;105286;1258;60329;-56
2023/02/23 09:59:05;;;;;;;8.30;3.70;;;;;;;-1.46;38.01;101518.08;105190;1261;73782;-56
2023/02/23 10:01:47;;;;;;;7.70;3.30;;;;;;;-1.46;37.42;101516.86;104801;1263;70598;-56
2023/02/23 10:04:21;;;;;;;9.20;4.00;;;;;;;-1.42;37.27;101515.96;104947;1263;72240;-57
2023/02/23 10:06:59;;;;;;;11.20;3.10;;;;;;;-1.38;37.40;101519.53;105400;1260;61194;-57
2023/02/23 10:09:56;;;;;;;6.90;3.00;;;;;;;-1.33;36.93;101516.89;104954;1257;61328;-57
2023/02/23 10:12:56;;;;;;;8.80;3.70;;;;;;;-1.28;36.92;101513.55;105289;1257;74100;-57
2023/02/23 10:15:26;;;;;;;8.90;3.60;;;;;;;-1.19;36.23;101510.34;108863;1257;70348;-56
2023/02/23 10:18:19;;;;;;;11.50;3.50;;;;;;;-1.12;36.28;101509.55;108889;1257;74602;-58
2023/02/23 10:20:59;;;;;;;8.10;4.00;;;;;;;-1.07;36.26;101508.98;108890;1258;60328;-56
2023/02/23 10:23:31;;;;;;;8.60;3.30;;;;;;;-1.04;35.87;101503.08;108764;1257;60451;-56
2023/02/23 10:25:59;;;;;;;8.50;3.40;;;;;;;-0.98;35.33;101500.91;108860;1259;72161;-56
2023/02/23 10:28:32;;;;;;;7.60;3.00;;;;;;;-0.90;35.18;101498.23;108092;1261;71123;-56
2023/02/23 10:31:00;;;;;;;6.40;2.50;;;;;;;-0.83;33.83;101498.47;105449;1260;73671;-58
2023/02/23 10:33:35;;;;;;;10.80;3.80;;;;;;;-0.78;34.19;101498.91;105179;1260;61257;-58
2023/02/23 10:36:16;;;;;;;8.60;2.70;;;;;;;-0.73;33.41;101495.55;105382;1263;61577;-57
2023/02/23 10:38:45;;;;;;;7.70;2.60;;;;;;;-0.67;33.65;101496.34;105313;1257;74065;-58
2023/02/23 10:41:14;;;;;;;8.80;3.50;;;;;;;-0.64;33.89;101499.39;105278;1258;71113;-59
2023/02/23 10:43:42;;;;;;;8.40;2.80;;;;;;;-0.62;33.07;101494.36;105344;1263;73754;-57
2023/02/23 10:46:16;;;;;;;8.30;3.40;;;;;;;-0.61;33.12;101493.84;105332;1257;61354;-57
2023/02/23 10:48:44;;;;;;;9.80;4.10;;;;;;;-0.60;32.86;101489.85;105135;1257;59977;-55
2023/02/23 10:51:24;;;;;;;7.90;3.40;;;;;;;-0.57;33.43;101493.07;105458;1257;73056;-55
2023/02/23 10:53:52;;;;;;;7.80;3.30;;;;;;;-0.53;33.51;101496.80;105040;1258;71307;-55
2023/02/23 10:56:21;;;;;;;8.70;3.60;;;;;;;-0.48;33.43;101490.52;105105;1260;73666;-56
2023/02/23 10:58:51;;;;;;;10.30;3.90;;;;;;;-0.44;33.30;101489.59;105229;1257;61633;-56
2023/02/23 11:01:43;;;;;;;9.50;3.00;;;;;;;-0.43;33.28;101490.10;105328;1262;60315;-55
2023/02/23 11:04:54;;;;;;;8.10;3.30;;;;;;;-0.38;34.08;101489.99;105268;1261;75251;-57
2023/02/23 11:07:28;;;;;;;7.60;2.70;;;;;;;-0.33;33.85;101485.96;105265;1260;71016;-56
2023/02/23 11:09:58;;;;;;;11.70;3.50;;;;;;;-0.28;34.38;101487.77;105397;1262;74013;-57
2023/02/23 11:12:36;;;;;;;11.20;3.90;;;;;;;-0.23;34.19;101485.25;105643;1257;61360;-56
2023/02/23 11:15:23;;;;;;;10.30;3.90;;;;;;;-0.18;34.63;101486.05;105099;1257;61301;-56
2023/02/23 11:18:06;;;;;;;8.20;2.40;;;;;;;-0.07;34.04;101483.42;105286;1262;73701;-56
2023/02/23 11:20:38;;;;;;;11.00;3.20;;;;;;;0.01;32.93;101483.64;105309;1263;71457;-56
2023/02/23 11:23:09;;;;;;;9.60;3.30;;;;;;;0.04;33.25;101483.05;105253;1258;72492;-56
2023/02/23 11:25:43;;;;;;;8.10;2.90;;;;;;;0.13;33.98;101482.20;105323;1260;61784;-56
2023/02/23 11:28:20;;;;;;;8.10;3.00;;;;;;;0.26;34.23;101480.55;105106;1263;60489;-56
2023/02/23 11:30:49;;;;;;;9.20;3.60;;;;;;;0.38;33.64;101480.67;105316;1262;75288;-55
2023/02/23 11:33:20;;;;;;;11.20;3.90;;;;;;;0.45;33.50;101476.39;105150;1257;71439;-58
2023/02/23 11:35:48;;;;;;;7.70;3.40;;;;;;;0.54;33.27;101476.21;105399;1260;73630;-56
2023/02/23 11:38:25;;;;;;;11.10;3.50;;;;;;;0.59;33.08;101479.22;105126;1258;60747;-56
2023/02/23 11:40:58;;;;;;;8.60;3.00;;;;;;;0.64;32.77;101477.04;105335;1257;60511;-57
2023/02/23 11:43:27;;;;;;;7.20;3.00;;;;;;;0.67;32.29;101481.14;105230;1258;74589;-56
2023/02/23 11:45:57;;;;;;;8.70;4.30;;;;;;;0.71;32.13;101480.70;105276;1257;71734;-55
2023/02/23 11:48:34;;;;;;;9.00;2.80;;;;;;;0.80;32.24;101478.41;105166;1257;73640;-55
2023/02/23 11:51:03;;;;;;;;;;;;;;;0.90;31.78;101474.05;105288;1257;60486;-55
2023/02/23 11:53:39;;;;;;;6.80;2.50;;;;;;;0.96;31.29;101474.98;105343;1257;61120;-54
2023/02/23 11:56:11;;;;;;;7.10;3.40;;;;;;;0.98;31.31;101473.70;105290;1260;74915;-55
2023/02/23 11:58:46;;;;;;;9.50;3.00;;;;;;;1.03;30.78;101471.68;108824;1257;71430;-55
2023/02/23 12:01:15;;;;;;;6.90;2.40;;;;;;;1.12;30.66;101472.17;108924;1258;72384;-56
2023/02/23 12:03:56;;;;;;;4.20;1.70;;;;;;;1.24;30.38;101472.74;108807;1257;60473;-56
2023/02/23 12:06:28;;;;;;;6.10;2.30;;;;;;;1.35;29.96;101470.94;108906;1259;59913;-56
2023/02/23 12:09:01;;;;;;;9.00;3.00;;;;;;;1.43;29.84;101471.09;108904;1259;73472;-56
2023/02/23 12:11:33;;;;;;;5.80;2.10;;;;;;;1.51;30.00;101464.33;108868;1257;71239;-56
2023/02/23 12:14:17;;;;;;;11.60;3.80;;;;;;;1.60;30.35;101465.65;108866;1257;73739;-54
2023/02/23 12:16:49;;;;;;;11.40;4.80;;;;;;;1.75;30.37;101463.02;108748;1257;60786;-55
2023/02/23 12:19:23;;;;;;;9.30;4.40;;;;;;;1.87;30.42;101459.25;108829;1260;60166;-55
2023/02/23 12:21:54;;;;;;;9.40;4.40;;;;;;;1.97;30.30;101458.64;108629;1257;73714;-55
2023/02/23 12:24:51;;;;;;;10.60;4.40;;;;;;;2.02;30.50;101460.06;105344;1257;71128;-55
2023/02/23 12:27:57;;;;;;;9.30;3.70;;;;;;;2.06;30.70;101459.42;105241;1257;73618;-54
2023/02/23 12:30:47;;;;;;;10.40;3.60;;;;;;;2.18;30.73;101457.38;105012;1258;60649;-55
2023/02/23 12:33:21;;;;;;;11.10;4.10;;;;;;;2.29;30.49;101455.34;105496;1261;61665;-55
2023/02/23 12:35:53;;;;;;;7.60;3.00;;;;;;;2.31;29.67;101452.70;105165;1260;74934;-58
2023/02/23 12:38:32;;;;;;;8.80;3.80;;;;;;;2.26;29.54;101450.06;105232;1257;71054;-56
2023/02/23 12:41:11;;;;;;;8.40;3.90;;;;;;;2.24;29.68;101449.27;105373;1257;73677;-57
2023/02/23 12:43:56;;;;;;;7.20;2.70;;;;;;;2.28;29.86;101448.80;105134;1258;60486;-57
2023/02/23 12:46:30;;;;;;;12.30;3.60;;;;;;;2.37;29.75;101444.21;105063;1258;60565;-57
2023/02/23 12:49:12;;;;;;;7.90;4.00;;;;;;;2.48;29.88;101443.53;105056;1263;74733;-54
2023/02/23 12:51:57;;;;;;;9.70;3.50;;;;;;;2.61;29.86;101440.20;105297;1260;70841;-55
2023/02/23 12:54:25;;;;;;;6.90;3.10;;;;;;;2.78;29.59;101433.98;105323;1262;72350;-55
2023/02/23 12:57:07;;;;;;;11.80;4.60;;;;;;;2.94;29.56;101433.50;105345;1259;60666;-55
2023/02/23 12:59:58;;;;;;;11.40;6.90;;;;;;;3.09;29.27;101431.64;105293;1260;61759;-56
2023/02/23 13:02:52;;;;;;;8.90;4.60;;;;;;;3.38;29.15;101424.44;105342;1257;73618;-56
2023/02/23 13:05:36;;;;;;;8.60;3.50;;;;;;;3.67;28.78;101419.83;105213;1262;70230;-55
2023/02/23 13:08:25;;;;;;;9.20;3.20;;;;;;;4.70;27.76;101414.11;105370;1258;73935;-55
2023/02/23 13:11:26;;;;;;;11.10;3.90;;;;;;;6.48;26.81;101415.81;108841;1257;60669;-55
2023/02/23 13:14:13;;;;;;;8.80;3.50;;;;;;;8.46;26.05;101411.64;105166;1263;61279;-56
2023/02/23 13:16:49;;;;;;;8.50;4.20;;;;;;;10.37;24.45;101410.65;108952;1257;75137;-56
2023/02/23 13:19:19;;;;;;;;;;;;;;;11.90;22.33;101407.00;108824;1257;71135;-56
2023/02/23 13:21:53;;;;;;;9.30;6.30;;;;;;;12.99;21.14;101404.90;108934;1257;72292;-57
2023/02/23 13:24:23;;;;;;;11.60;6.90;;;;;;;13.80;20.26;101401.65;108900;1257;60559;-56
2023/02/23 13:26:57;;;;;;;10.20;7.00;;;;;;;14.48;19.73;101397.75;108836;1257;61224;-58
2023/02/23 13:29:34;;;;;;;10.50;6.70;;;;;;;15.23;19.05;101394.80;108885;1257;74928;-55